Time;durP1;ratioP1;P1;durP2;ratioP2;P2;SDS_P1;SDS_P2;PMS_P1;PMS_P2;Temp;Humidity;BMP_temperature;BMP_pressure;BME280_temperature;BME280_humidity;BME280_pressure;Samples;Min_cycle;Max_cycle;Signal;HPM_P1;HPM_P2
2022/08/25 00:01:34;;;;;;;6.82;4.68;;;21.30;99.90;;;;;;5073273;28;20118;-72
2022/08/25 00:04:01;;;;;;;7.38;4.82;;;21.30;99.90;;;;;;5061472;28;20076;-72
2022/08/25 00:06:28;;;;;;;7.97;4.78;;;21.30;99.90;;;;;;5062230;28;20045;-72
2022/08/25 00:08:58;;;;;;;10.52;4.90;;;21.30;99.90;;;;;;5054399;28;20041;-72
2022/08/25 00:11:25;;;;;;;9.23;5.10;;;21.20;99.90;;;;;;5040256;28;20048;-71
2022/08/25 00:13:55;;;;;;;6.97;4.35;;;21.20;99.90;;;;;;5072700;28;20036;-71
2022/08/25 00:16:22;;;;;;;7.57;4.18;;;21.20;99.90;;;;;;5073143;28;20040;-72
2022/08/25 00:18:52;;;;;;;9.35;5.30;;;21.10;99.90;;;;;;5036836;28;20043;-72
2022/08/25 00:21:18;;;;;;;8.80;4.90;;;21.20;99.90;;;;;;5061252;28;20071;-74
2022/08/25 00:23:45;;;;;;;8.75;5.30;;;21.10;99.90;;;;;;5079708;28;20525;-73
2022/08/25 00:26:12;;;;;;;6.25;4.40;;;21.10;99.90;;;;;;5043337;28;20053;-73
2022/08/25 00:28:38;;;;;;;6.20;4.00;;;21.00;99.90;;;;;;5072879;28;20559;-72
2022/08/25 00:31:05;;;;;;;7.95;4.38;;;21.00;99.90;;;;;;5072125;28;20036;-72
2022/08/25 00:33:32;;;;;;;8.05;4.70;;;20.90;99.90;;;;;;5060365;28;20048;-73
2022/08/25 00:35:58;;;;;;;8.75;4.80;;;20.90;99.90;;;;;;5069229;28;20391;-74
2022/08/25 00:38:25;;;;;;;8.13;4.55;;;20.90;99.90;;;;;;5062623;28;20040;-72
2022/08/25 00:41:04;;;;;;;9.20;4.90;;;20.80;99.90;;;;;;5067249;28;20100;-73
2022/08/25 00:43:50;;;;;;;7.70;4.75;;;20.80;99.90;;;;;;5062151;28;20040;-72
2022/08/25 00:46:24;;;;;;;7.70;4.72;;;20.70;99.90;;;;;;5055626;28;20056;-73
2022/08/25 00:48:54;;;;;;;6.85;4.10;;;20.60;99.90;;;;;;5060933;28;20120;-72
2022/08/25 00:51:51;;;;;;;7.20;4.18;;;20.60;99.90;;;;;;5071600;28;20029;-72
2022/08/25 00:54:22;;;;;;;7.82;4.55;;;20.60;99.90;;;;;;5037838;28;20060;-72
2022/08/25 00:56:50;;;;;;;6.72;4.22;;;20.60;99.90;;;;;;5072003;28;20057;-75
2022/08/25 00:59:18;;;;;;;9.02;4.07;;;20.50;99.90;;;;;;5058991;28;20049;-72
2022/08/25 01:01:44;;;;;;;7.95;4.53;;;20.40;99.90;;;;;;5058051;28;20522;-72
2022/08/25 01:04:10;;;;;;;9.77;4.50;;;20.40;99.90;;;;;;5060063;28;20096;-72
2022/08/25 01:06:39;;;;;;;6.72;3.72;;;20.30;99.90;;;;;;5066055;28;20040;-72
2022/08/25 01:09:06;;;;;;;6.38;4.00;;;20.30;99.90;;;;;;5077756;28;20044;-72
2022/08/25 01:11:33;;;;;;;7.95;4.10;;;20.30;99.90;;;;;;5066844;28;20068;-72
2022/08/25 01:14:05;;;;;;;10.35;4.32;;;20.30;99.90;;;;;;5051755;28;20044;-73
2022/08/25 01:16:36;;;;;;;6.70;3.72;;;20.20;99.90;;;;;;5063738;28;20094;-72
2022/08/25 01:19:03;;;;;;;5.90;3.60;;;20.20;99.90;;;;;;5051736;28;20479;-72
2022/08/25 01:21:33;;;;;;;8.73;4.35;;;20.20;99.90;;;;;;5061901;28;20425;-72
2022/08/25 01:23:59;;;;;;;7.88;3.65;;;20.20;99.90;;;;;;5051595;28;20081;-73
2022/08/25 01:26:28;;;;;;;8.00;4.25;;;20.30;99.90;;;;;;5035269;28;20049;-72
2022/08/25 01:31:40;;;;;;;7.30;3.80;;;20.20;99.90;;;;;;5061492;28;20084;-73
2022/08/25 01:34:13;;;;;;;7.78;3.97;;;20.20;99.90;;;;;;5051776;28;20379;-72
2022/08/25 01:36:40;;;;;;;6.63;3.90;;;20.20;99.90;;;;;;5051652;28;20118;-72
2022/08/25 01:39:06;;;;;;;8.15;3.95;;;20.10;99.90;;;;;;5048047;28;20131;-72
2022/08/25 01:41:44;;;;;;;8.63;4.40;;;20.00;99.90;;;;;;5072759;28;20124;-73
2022/08/25 01:44:10;;;;;;;9.00;4.28;;;20.00;99.90;;;;;;5059935;28;20049;-72
2022/08/25 01:46:36;;;;;;;7.68;3.97;;;20.00;99.90;;;;;;5083893;28;20032;-74
2022/08/25 01:49:02;;;;;;;7.90;4.28;;;19.90;99.90;;;;;;5082838;28;20467;-73
2022/08/25 01:51:33;;;;;;;6.90;4.18;;;19.90;99.90;;;;;;5038813;28;20068;-72
2022/08/25 01:53:59;;;;;;;8.85;4.07;;;19.90;99.90;;;;;;5079155;28;20073;-73
2022/08/25 01:56:25;;;;;;;7.30;4.50;;;19.90;99.90;;;;;;5056832;28;20051;-73
2022/08/25 01:58:52;;;;;;;9.73;4.45;;;19.80;99.90;;;;;;5065662;28;20048;-73
2022/08/25 02:01:22;;;;;;;8.27;4.45;;;19.80;99.90;;;;;;5037135;28;20132;-72
2022/08/25 02:03:50;;;;;;;9.07;4.18;;;19.80;99.90;;;;;;5055558;28;20057;-72
2022/08/25 02:06:23;;;;;;;7.65;3.83;;;19.70;99.90;;;;;;5059151;28;20055;-72
2022/08/25 02:08:54;;;;;;;8.63;4.15;;;19.70;99.90;;;;;;5052547;28;20075;-72
2022/08/25 02:11:20;;;;;;;8.40;4.82;;;19.60;99.90;;;;;;5076583;28;20095;-72
2022/08/25 02:13:46;;;;;;;9.82;4.38;;;19.60;99.90;;;;;;5080633;28;20080;-73
2022/08/25 02:16:19;;;;;;;9.80;4.40;;;19.50;99.90;;;;;;5063705;28;20044;-72
2022/08/25 02:18:46;;;;;;;7.10;4.10;;;19.50;99.90;;;;;;5052490;28;20068;-72
2022/08/25 02:21:13;;;;;;;8.52;4.10;;;19.50;99.90;;;;;;5054743;28;20040;-71
2022/08/25 02:23:40;;;;;;;7.00;3.50;;;19.40;99.90;;;;;;5038191;28;20102;-72
2022/08/25 02:26:07;;;;;;;7.03;3.75;;;19.40;99.90;;;;;;5055088;28;20051;-72
2022/08/25 02:28:32;;;;;;;8.02;4.32;;;19.40;99.90;;;;;;5076568;28;20036;-73
2022/08/25 02:30:59;;;;;;;6.22;3.47;;;19.40;99.90;;;;;;5048739;28;20068;-73
2022/08/25 02:33:24;;;;;;;7.55;3.70;;;19.40;99.90;;;;;;5041741;28;20094;-72
2022/08/25 02:35:50;;;;;;;7.63;3.75;;;19.40;99.90;;;;;;5068932;28;20044;-73
2022/08/25 02:38:17;;;;;;;5.90;3.00;;;19.40;99.90;;;;;;5054323;28;20194;-73
2022/08/25 02:40:43;;;;;;;6.63;3.40;;;19.50;99.90;;;;;;5045263;28;20083;-72
2022/08/25 02:43:08;;;;;;;6.35;3.30;;;19.50;99.90;;;;;;5068860;28;20052;-73
2022/08/25 02:45:35;;;;;;;6.68;3.15;;;19.60;99.90;;;;;;5054775;28;20534;-73
2022/08/25 02:48:02;;;;;;;6.30;3.17;;;19.60;99.90;;;;;;5069498;28;20052;-72
2022/08/25 02:50:28;;;;;;;6.15;3.50;;;19.60;99.90;;;;;;5080768;28;20051;-72
2022/08/25 02:52:54;;;;;;;5.78;3.00;;;19.60;99.90;;;;;;5081421;28;20127;-72
2022/08/25 02:55:20;;;;;;;7.45;3.25;;;19.60;99.90;;;;;;5057689;28;20116;-73
2022/08/25 02:57:47;;;;;;;5.68;3.33;;;19.60;99.90;;;;;;5073715;28;20041;-74
2022/08/25 03:00:15;;;;;;;6.75;3.35;;;19.60;99.90;;;;;;5056464;28;20055;-73
2022/08/25 03:02:41;;;;;;;6.32;3.50;;;19.60;99.90;;;;;;5085883;28;20053;-72
2022/08/25 03:05:09;;;;;;;7.28;3.55;;;19.60;99.90;;;;;;5057563;28;20415;-74
2022/08/25 03:07:37;;;;;;;7.28;3.75;;;19.60;99.90;;;;;;5073961;28;20090;-72
2022/08/25 03:10:15;;;;;;;8.45;4.10;;;19.60;99.90;;;;;;5054462;28;20063;-72
2022/08/25 03:12:41;;;;;;;6.68;3.42;;;19.50;99.90;;;;;;5046812;28;20041;-72
2022/08/25 03:15:14;;;;;;;6.25;3.35;;;19.50;99.90;;;;;;5089902;28;20119;-72
2022/08/25 03:17:39;;;;;;;6.53;3.65;;;19.40;99.90;;;;;;5061965;28;20049;-72
2022/08/25 03:20:06;;;;;;;8.50;4.57;;;19.50;99.90;;;;;;5054879;28;20494;-73
2022/08/25 03:22:32;;;;;;;7.95;4.10;;;19.40;99.90;;;;;;5043306;28;20045;-73
2022/08/25 03:26:52;;;;;;;6.65;4.20;;;19.40;99.90;;;;;;5056207;28;20049;-72
2022/08/25 03:27:43;;;;;;;8.07;4.78;;;19.40;99.90;;;;;;5063184;28;20056;-72
2022/08/25 03:30:10;;;;;;;6.85;3.97;;;19.30;99.90;;;;;;5043834;28;20053;-74
2022/08/25 03:32:36;;;;;;;8.05;3.40;;;19.30;99.90;;;;;;5083521;28;20471;-73
2022/08/25 03:35:01;;;;;;;6.78;3.55;;;19.40;99.90;;;;;;5074270;28;20051;-72
2022/08/25 03:37:27;;;;;;;6.05;3.40;;;19.40;99.90;;;;;;5072429;28;20040;-73
2022/08/25 03:39:53;;;;;;;6.03;3.20;;;19.40;99.90;;;;;;5037781;28;20044;-72
2022/08/25 03:42:18;;;;;;;7.15;4.25;;;19.40;99.90;;;;;;5074708;28;20037;-72
2022/08/25 03:44:44;;;;;;;7.05;4.22;;;19.30;99.90;;;;;;5077398;28;20089;-72
2022/08/25 03:47:10;;;;;;;7.40;4.40;;;19.30;99.90;;;;;;5084656;28;20045;-74
2022/08/25 03:49:36;;;;;;;6.97;3.75;;;19.20;99.90;;;;;;5047452;28;20114;-72
2022/08/25 03:52:02;;;;;;;7.78;4.15;;;19.20;99.90;;;;;;5055741;28;20051;-73
2022/08/25 03:54:27;;;;;;;7.50;3.80;;;19.20;99.90;;;;;;5073161;28;20056;-75
2022/08/25 03:56:54;;;;;;;9.50;5.10;;;19.10;99.90;;;;;;5053429;28;20047;-73
2022/08/25 03:59:19;;;;;;;7.07;4.32;;;19.10;99.90;;;;;;5045808;28;20098;-72
2022/08/25 04:01:46;;;;;;;7.00;3.83;;;19.00;99.90;;;;;;5053268;28;20049;-72
2022/08/25 04:04:13;;;;;;;6.88;4.20;;;18.90;99.90;;;;;;5053094;28;20036;-72
2022/08/25 04:06:41;;;;;;;9.02;4.50;;;18.90;99.90;;;;;;5054830;28;20379;-74
2022/08/25 04:09:06;;;;;;;5.93;3.70;;;18.80;99.90;;;;;;5028306;28;20037;-72
2022/08/25 04:11:32;;;;;;;9.75;5.28;;;18.70;99.90;;;;;;5080667;28;20037;-72
2022/08/25 04:14:01;;;;;;;11.48;5.10;;;18.70;99.90;;;;;;5046199;28;20123;-72
2022/08/25 04:16:31;;;;;;;8.57;5.38;;;18.60;99.90;;;;;;5057235;28;20088;-72
2022/08/25 04:18:59;;;;;;;7.40;4.55;;;18.50;99.90;;;;;;5053159;28;20083;-74
2022/08/25 04:21:26;;;;;;;10.63;5.40;;;18.50;99.90;;;;;;5081193;28;20131;-71
2022/08/25 04:23:53;;;;;;;8.35;4.93;;;18.30;99.90;;;;;;5071797;28;20467;-72
2022/08/25 04:26:26;;;;;;;8.60;5.10;;;18.30;99.90;;;;;;5053065;28;20461;-73
2022/08/25 04:28:53;;;;;;;10.38;5.38;;;18.20;99.90;;;;;;5059082;28;20119;-72
2022/08/25 04:31:20;;;;;;;11.07;5.35;;;18.20;99.90;;;;;;5063527;28;20093;-72
2022/08/25 04:33:47;;;;;;;7.78;6.10;;;18.20;99.90;;;;;;5064290;28;20044;-72
2022/08/25 04:36:14;;;;;;;9.60;6.40;;;18.20;99.90;;;;;;5086877;28;20490;-75
2022/08/25 04:38:41;;;;;;;8.30;5.20;;;18.10;99.90;;;;;;5072266;28;20533;-72
2022/08/25 04:41:08;;;;;;;11.48;5.75;;;18.20;99.90;;;;;;5058459;28;20396;-71
2022/08/25 04:43:34;;;;;;;10.27;5.78;;;18.10;99.90;;;;;;5072567;28;20344;-71
2022/08/25 04:46:05;;;;;;;9.85;5.70;;;18.00;99.90;;;;;;5059501;28;20072;-72
2022/08/25 04:48:31;;;;;;;10.38;5.57;;;18.00;99.90;;;;;;5051929;28;20086;-71
2022/08/25 04:50:57;;;;;;;9.93;5.25;;;17.90;99.90;;;;;;5064745;28;20083;-71
2022/08/25 04:53:23;;;;;;;8.52;5.32;;;18.00;99.90;;;;;;5058186;28;20400;-72
2022/08/25 04:55:49;;;;;;;8.30;5.38;;;18.00;99.90;;;;;;5083027;28;20040;-72
2022/08/25 04:58:16;;;;;;;8.73;5.68;;;18.00;99.90;;;;;;5072334;28;20046;-71
2022/08/25 05:00:42;;;;;;;8.18;5.95;;;18.00;99.90;;;;;;5072168;28;20043;-71
2022/08/25 05:03:08;;;;;;;8.38;5.25;;;17.90;99.90;;;;;;5058343;28;20048;-71
2022/08/25 05:05:36;;;;;;;8.38;5.13;;;18.00;99.90;;;;;;5057705;28;20094;-71
2022/08/25 05:08:02;;;;;;;9.45;5.35;;;17.90;99.90;;;;;;5059494;28;20044;-72
2022/08/25 05:10:28;;;;;;;8.43;5.35;;;17.90;99.90;;;;;;5052073;28;20057;-72
2022/08/25 05:12:53;;;;;;;9.32;6.38;;;17.90;99.90;;;;;;5051531;28;20045;-72
2022/08/25 05:18:03;;;;;;;11.95;6.20;;;17.80;99.90;;;;;;5066992;28;20101;-72
2022/08/25 05:20:29;;;;;;;10.23;6.15;;;17.80;99.90;;;;;;5049415;28;20045;-72
2022/08/25 05:22:56;;;;;;;9.38;6.28;;;17.80;99.90;;;;;;5063946;28;20032;-75
2022/08/25 05:25:23;;;;;;;10.30;6.53;;;17.80;99.90;;;;;;5050925;28;20041;-72
2022/08/25 05:27:49;;;;;;;10.77;6.40;;;17.80;99.90;;;;;;5052429;28;20094;-72
2022/08/25 05:30:15;;;;;;;11.23;6.93;;;17.80;99.90;;;;;;5050883;28;20037;-73
2022/08/25 05:32:40;;;;;;;8.57;5.18;;;17.90;99.90;;;;;;5053690;28;20055;-72
2022/08/25 05:35:07;;;;;;;11.13;6.38;;;17.90;99.90;;;;;;5071242;28;20410;-73
2022/08/25 05:37:33;;;;;;;9.55;6.05;;;18.00;99.90;;;;;;5058513;28;20057;-75
2022/08/25 05:39:59;;;;;;;10.18;6.80;;;18.00;99.90;;;;;;5065577;28;20041;-73
2022/08/25 05:42:27;;;;;;;8.90;6.30;;;18.00;99.90;;;;;;5064696;28;20528;-73
2022/08/25 05:44:54;;;;;;;11.65;6.93;;;18.10;99.90;;;;;;5054450;28;20094;-71
2022/08/25 05:47:20;;;;;;;9.35;6.40;;;18.20;99.90;;;;;;5054887;28;20433;-72
2022/08/25 05:49:46;;;;;;;9.88;6.45;;;18.20;99.90;;;;;;5059415;28;20041;-76
2022/08/25 05:52:12;;;;;;;9.55;6.88;;;18.30;99.90;;;;;;5064394;28;20071;-71
2022/08/25 05:54:38;;;;;;;12.35;7.15;;;18.30;99.90;;;;;;5068026;28;20437;-72
2022/08/25 05:57:05;;;;;;;9.65;6.13;;;18.40;99.90;;;;;;5071833;28;20028;-72
2022/08/25 05:59:31;;;;;;;10.45;7.03;;;18.40;99.90;;;;;;5060745;28;20480;-71
2022/08/25 06:04:41;;;;;;;10.50;6.63;;;18.70;99.90;;;;;;5071054;28;20059;-72
2022/08/25 06:07:08;;;;;;;10.07;7.30;;;18.90;99.90;;;;;;5050450;28;20398;-72
2022/08/25 06:09:36;;;;;;;12.40;7.10;;;19.10;99.90;;;;;;5057014;28;20128;-73
2022/08/25 06:12:01;;;;;;;11.70;7.30;;;19.60;99.90;;;;;;5078135;28;20036;-71
2022/08/25 06:14:27;;;;;;;10.68;7.25;;;20.00;99.90;;;;;;5041609;28;20041;-73
2022/08/25 06:16:53;;;;;;;8.98;6.70;;;20.20;99.90;;;;;;5070423;28;20051;-72
2022/08/25 06:19:19;;;;;;;9.32;6.18;;;20.70;99.90;;;;;;5038388;28;20049;-72
2022/08/25 06:21:45;;;;;;;10.98;6.47;;;21.10;99.90;;;;;;5053458;28;20040;-72
2022/08/25 06:24:11;;;;;;;9.85;7.30;;;21.40;99.90;;;;;;5053315;28;20107;-71
2022/08/25 06:26:37;;;;;;;10.10;6.80;;;21.80;99.90;;;;;;5066537;28;20068;-71
2022/08/25 06:29:03;;;;;;;12.15;6.60;;;22.20;99.90;;;;;;5057207;28;20049;-73
2022/08/25 06:31:29;;;;;;;12.02;6.30;;;22.30;99.90;;;;;;5051205;28;20054;-71
2022/08/25 06:33:55;;;;;;;11.68;6.57;;;22.40;99.60;;;;;;5065453;28;20036;-71
2022/08/25 06:36:20;;;;;;;10.80;6.68;;;22.60;99.10;;;;;;5079000;28;20031;-72
2022/08/25 06:38:47;;;;;;;9.65;7.18;;;22.60;99.00;;;;;;5072814;28;20056;-72
2022/08/25 06:41:15;;;;;;;10.00;6.75;;;22.90;98.90;;;;;;5071642;28;20519;-71
2022/08/25 06:43:41;;;;;;;8.88;6.53;;;23.40;97.60;;;;;;5058343;28;20036;-72
2022/08/25 06:46:12;;;;;;;11.30;6.72;;;23.60;97.70;;;;;;5075648;28;20055;-72
2022/08/25 06:48:38;;;;;;;10.95;6.75;;;23.80;97.10;;;;;;5070028;28;20078;-72
2022/08/25 06:51:11;;;;;;;12.35;7.05;;;24.20;95.40;;;;;;5057642;28;20062;-72
2022/08/25 06:53:37;;;;;;;10.93;6.38;;;24.10;94.80;;;;;;5074069;28;20119;-71
2022/08/25 06:56:04;;;;;;;11.13;6.53;;;24.40;95.50;;;;;;5070852;28;20143;-71
2022/08/25 06:58:30;;;;;;;8.98;6.30;;;24.70;94.60;;;;;;5075269;28;20055;-71
2022/08/25 07:00:55;;;;;;;9.70;5.78;;;24.60;94.50;;;;;;5046719;28;20132;-71
2022/08/25 07:03:22;;;;;;;8.85;5.97;;;24.80;94.40;;;;;;5057549;28;20124;-70
2022/08/25 07:05:55;;;;;;;9.73;5.78;;;25.10;94.10;;;;;;5054046;28;20041;-70
2022/08/25 07:08:22;;;;;;;12.93;6.22;;;25.80;93.90;;;;;;5065084;28;20048;-70
2022/08/25 07:10:48;;;;;;;30.55;7.03;;;26.10;93.10;;;;;;5053853;28;20048;-70
2022/08/25 07:13:14;;;;;;;12.73;6.05;;;26.50;92.50;;;;;;5054991;28;20040;-71
2022/08/25 07:15:42;;;;;;;11.93;5.80;;;26.90;91.20;;;;;;5074475;28;20427;-71
2022/08/25 07:18:10;;;;;;;9.73;5.05;;;27.20;90.30;;;;;;5071938;28;20195;-71
2022/08/25 07:20:39;;;;;;;10.60;4.40;;;27.40;86.60;;;;;;5058074;28;20094;-73
2022/08/25 07:23:06;;;;;;;11.07;4.40;;;27.30;83.80;;;;;;5075984;28;20112;-71
2022/08/25 07:25:33;;;;;;;9.35;4.35;;;27.20;83.30;;;;;;5073937;28;20041;-71
2022/08/25 07:27:59;;;;;;;9.35;4.68;;;27.40;82.50;;;;;;5060957;28;20052;-73
2022/08/25 07:30:26;;;;;;;7.63;4.20;;;27.70;81.40;;;;;;5061782;28;20464;-71
2022/08/25 07:32:52;;;;;;;7.90;4.50;;;27.90;79.50;;;;;;5053441;28;20041;-74
2022/08/25 07:35:19;;;;;;;7.63;4.50;;;27.60;76.90;;;;;;5053752;28;20052;-73
2022/08/25 07:37:50;;;;;;;8.57;4.35;;;27.40;78.70;;;;;;5069544;28;20090;-72
2022/08/25 07:40:21;;;;;;;7.63;4.40;;;27.30;77.90;;;;;;5082782;28;20048;-71
2022/08/25 07:42:52;;;;;;;8.55;4.20;;;27.30;78.80;;;;;;5077521;28;20032;-72
2022/08/25 07:45:20;;;;;;;8.43;4.30;;;27.40;78.00;;;;;;5070540;28;20483;-74
2022/08/25 07:47:45;;;;;;;8.43;4.10;;;27.50;77.20;;;;;;5075138;28;20041;-72
2022/08/25 07:50:12;;;;;;;7.60;4.18;;;27.70;77.40;;;;;;5061289;28;20066;-73
2022/08/25 07:52:39;;;;;;;9.02;4.60;;;27.80;76.30;;;;;;5072541;28;20052;-73
2022/08/25 07:55:06;;;;;;;8.85;4.20;;;27.80;74.40;;;;;;5064012;28;20035;-71
2022/08/25 07:57:33;;;;;;;9.98;4.45;;;28.30;75.50;;;;;;5084931;28;20048;-71
2022/08/25 07:59:59;;;;;;;7.78;4.30;;;28.20;74.40;;;;;;5042610;28;20048;-73
2022/08/25 08:02:25;;;;;;;8.73;4.35;;;28.20;74.10;;;;;;5073417;28;20054;-72
2022/08/25 08:04:51;;;;;;;8.32;4.38;;;28.50;73.40;;;;;;5053477;28;20094;-72
2022/08/25 08:07:20;;;;;;;7.82;4.43;;;28.60;73.70;;;;;;5035884;28;20107;-72
2022/08/25 08:09:47;;;;;;;9.32;4.40;;;28.50;71.40;;;;;;5049899;28;20107;-72
2022/08/25 08:12:13;;;;;;;7.28;4.35;;;28.30;75.20;;;;;;5036350;28;20052;-72
2022/08/25 08:14:38;;;;;;;8.90;4.30;;;28.50;73.90;;;;;;5066718;28;20124;-72
2022/08/25 08:17:09;;;;;;;7.53;4.30;;;28.70;74.10;;;;;;5050803;28;20406;-71
2022/08/25 08:19:35;;;;;;;8.80;4.53;;;29.10;73.50;;;;;;5052716;28;20045;-73
2022/08/25 08:22:02;;;;;;;8.40;4.00;;;29.00;71.40;;;;;;5067072;28;20380;-72
2022/08/25 08:24:29;;;;;;;7.05;4.00;;;29.40;71.80;;;;;;5046904;28;20052;-71
2022/08/25 08:26:55;;;;;;;8.70;3.97;;;29.40;71.90;;;;;;5074455;28;20119;-73
2022/08/25 08:29:22;;;;;;;6.95;4.20;;;29.50;70.40;;;;;;5064390;28;20041;-72
2022/08/25 08:31:47;;;;;;;9.05;4.53;;;29.10;69.50;;;;;;5062052;28;20106;-77
2022/08/25 08:34:13;;;;;;;6.72;4.03;;;28.80;70.30;;;;;;5057335;28;20468;-74
2022/08/25 08:36:39;;;;;;;7.82;4.30;;;29.00;70.20;;;;;;5053366;28;20047;-73
2022/08/25 08:39:05;;;;;;;8.35;4.00;;;28.60;70.40;;;;;;5066822;28;20539;-71
2022/08/25 08:44:53;;;;;;;;;;;29.20;70.60;;;;;;5057155;28;20495;-74
2022/08/25 08:47:18;;;;;;;8.48;4.40;;;29.30;70.70;;;;;;5064120;28;19920;-72
2022/08/25 08:50:02;;;;;;;6.97;4.40;;;29.80;68.60;;;;;;5073393;28;20062;-74
2022/08/25 08:52:50;;;;;;;8.30;4.38;;;29.60;68.30;;;;;;5054183;28;20041;-72
2022/08/25 08:55:41;;;;;;;7.68;4.00;;;29.60;68.30;;;;;;5059248;28;20109;-73
2022/08/25 08:58:17;;;;;;;8.63;3.97;;;29.90;69.20;;;;;;5070210;28;20051;-74
2022/08/25 09:00:51;;;;;;;7.35;4.15;;;30.00;67.70;;;;;;5072148;28;20115;-71
2022/08/25 09:03:36;;;;;;;7.70;3.97;;;29.80;65.50;;;;;;5091097;28;20162;-72
2022/08/25 09:06:21;;;;;;;10.93;3.90;;;29.70;66.50;;;;;;5067216;28;20059;-72
2022/08/25 09:08:47;;;;;;;8.50;3.90;;;29.90;66.00;;;;;;5069895;28;20481;-74
2022/08/25 09:11:16;;;;;;;7.10;3.40;;;30.00;66.00;;;;;;5061857;28;20056;-72
2022/08/25 09:13:52;;;;;;;8.80;3.50;;;30.20;63.50;;;;;;5069612;28;20580;-73
2022/08/25 09:16:56;;;;;;;8.18;3.85;;;30.00;63.50;;;;;;5055183;28;20056;-72
2022/08/25 09:19:39;;;;;;;7.03;3.60;;;30.20;64.00;;;;;;5047192;28;20041;-72
2022/08/25 09:22:43;;;;;;;7.07;3.45;;;30.20;61.50;;;;;;5059300;28;20040;-72
2022/08/25 09:25:37;;;;;;;6.95;3.25;;;30.50;62.30;;;;;;5000844;28;20055;-71
2022/08/25 09:28:22;;;;;;;8.10;3.55;;;30.70;60.60;;;;;;5039533;28;20472;-73
2022/08/25 09:31:07;;;;;;;8.35;3.20;;;30.90;60.00;;;;;;5039725;28;20060;-70
2022/08/25 09:33:33;;;;;;;5.93;3.15;;;30.70;57.70;;;;;;5072886;28;20112;-72
2022/08/25 09:36:00;;;;;;;8.25;3.78;;;30.90;56.80;;;;;;5034383;28;20091;-72
2022/08/25 09:38:27;;;;;;;6.93;3.08;;;30.90;59.30;;;;;;5026450;28;20484;-72
2022/08/25 09:40:56;;;;;;;6.90;3.03;;;31.20;55.30;;;;;;5040592;28;20127;-75
2022/08/25 09:43:31;;;;;;;7.07;3.17;;;31.40;55.20;;;;;;5035264;28;20075;-72
2022/08/25 09:46:10;;;;;;;6.10;2.85;;;31.40;54.10;;;;;;5034854;28;20063;-71
2022/08/25 09:48:52;;;;;;;8.00;2.90;;;31.40;51.50;;;;;;5048654;28;20041;-71
2022/08/25 09:51:27;;;;;;;7.13;3.03;;;31.50;51.90;;;;;;5038083;28;20056;-72
2022/08/25 09:54:11;;;;;;;6.20;3.15;;;31.60;53.00;;;;;;5054169;28;20041;-72
2022/08/25 09:56:55;;;;;;;7.53;2.88;;;31.50;50.00;;;;;;5072538;28;20044;-73
2022/08/25 09:59:33;;;;;;;6.45;2.83;;;31.70;51.10;;;;;;5053407;28;20036;-72
2022/08/25 10:02:03;;;;;;;6.90;2.92;;;31.40;48.10;;;;;;5037421;28;20480;-74
2022/08/25 10:04:37;;;;;;;6.20;2.92;;;31.50;49.70;;;;;;5048724;28;20481;-72
2022/08/25 10:07:28;;;;;;;6.05;2.75;;;31.60;50.50;;;;;;5056991;28;20050;-71
2022/08/25 10:10:06;;;;;;;7.47;3.00;;;31.70;48.90;;;;;;5043661;28;20179;-73
2022/08/25 10:12:32;;;;;;;6.45;3.05;;;31.70;48.70;;;;;;5049901;28;20486;-74
2022/08/25 10:14:57;;;;;;;5.40;3.00;;;31.90;48.10;;;;;;5076222;28;20036;-72
2022/08/25 10:17:31;;;;;;;6.22;2.80;;;31.70;48.60;;;;;;5048908;28;20041;-74
2022/08/25 10:20:09;;;;;;;7.05;3.10;;;31.90;49.00;;;;;;5038206;28;20049;-73
2022/08/25 10:22:39;;;;;;;9.10;3.30;;;32.00;48.70;;;;;;5048166;28;20047;-72
2022/08/25 10:25:13;;;;;;;8.15;2.70;;;32.00;47.80;;;;;;5055422;28;20140;-74
2022/08/25 10:28:14;;;;;;;6.78;2.85;;;31.60;45.60;;;;;;5048218;28;20127;-72
2022/08/25 10:30:46;;;;;;;;;;;31.80;44.40;;;;;;5036513;28;20049;-75
2022/08/25 10:33:21;;;;;;;6.78;3.03;;;31.80;44.80;;;;;;5089427;28;19931;-72
2022/08/25 10:35:52;;;;;;;5.90;3.05;;;31.70;46.50;;;;;;5057361;28;20044;-72
2022/08/25 10:38:27;;;;;;;5.80;2.80;;;31.90;46.20;;;;;;5057538;28;20064;-73
2022/08/25 10:41:06;;;;;;;6.20;2.78;;;32.00;46.50;;;;;;5075821;28;20059;-75
2022/08/25 10:43:36;;;;;;;6.70;2.75;;;32.20;44.70;;;;;;5058254;28;20086;-75
2022/08/25 10:46:13;;;;;;;5.23;2.53;;;32.20;43.50;;;;;;5055561;28;20053;-72
2022/08/25 10:49:01;;;;;;;6.78;2.63;;;32.10;42.50;;;;;;5086817;28;20290;-71
2022/08/25 10:51:49;;;;;;;7.93;3.00;;;32.00;45.10;;;;;;5041460;28;20062;-72
2022/08/25 10:54:23;;;;;;;6.38;3.15;;;31.90;46.30;;;;;;5021244;28;20045;-74
2022/08/25 10:57:00;;;;;;;7.18;2.78;;;31.60;44.70;;;;;;5063648;28;20032;-73
2022/08/25 10:59:51;;;;;;;7.53;2.97;;;31.80;44.50;;;;;;5057336;28;20052;-72
2022/08/25 11:02:56;;;;;;;5.90;2.80;;;31.70;45.40;;;;;;5056613;28;20150;-72
2022/08/25 11:05:39;;;;;;;7.75;3.10;;;32.00;45.60;;;;;;5056921;28;20045;-75
2022/08/25 11:08:36;;;;;;;7.03;2.88;;;31.90;44.40;;;;;;5053737;28;20037;-73
2022/08/25 11:11:23;;;;;;;6.65;2.50;;;31.80;42.80;;;;;;5050450;28;20399;-73
2022/08/25 11:14:16;;;;;;;11.80;2.88;;;32.10;43.80;;;;;;5057742;28;20080;-72
2022/08/25 11:16:49;;;;;;;6.00;2.95;;;32.00;43.90;;;;;;5036920;28;20056;-76
2022/08/25 11:19:33;;;;;;;7.18;3.15;;;32.20;43.40;;;;;;5057658;28;20055;-73
2022/08/25 11:22:31;;;;;;;6.90;2.90;;;32.20;44.50;;;;;;5055756;28;20414;-74
2022/08/25 11:25:15;;;;;;;6.10;2.90;;;32.20;44.70;;;;;;5055649;28;20052;-75
2022/08/25 11:28:03;;;;;;;6.00;2.78;;;32.20;42.10;;;;;;5053944;28;20045;-71
2022/08/25 11:30:29;;;;;;;6.13;2.90;;;32.20;42.00;;;;;;5044188;28;20049;-72
2022/08/25 11:32:55;;;;;;;6.15;2.95;;;32.10;42.20;;;;;;5073172;28;20040;-73
2022/08/25 11:35:45;;;;;;;8.48;3.00;;;32.00;42.10;;;;;;5056997;28;20048;-73
2022/08/25 11:38:38;;;;;;;6.43;3.00;;;32.20;44.40;;;;;;5062056;28;20620;-71
2022/08/25 11:41:07;;;;;;;6.22;2.83;;;32.30;43.00;;;;;;5061153;28;20095;-70
2022/08/25 11:43:48;;;;;;;6.32;2.88;;;32.40;43.50;;;;;;5074698;28;20044;-74
2022/08/25 11:46:38;;;;;;;6.22;2.80;;;32.20;40.60;;;;;;5042950;28;20047;-72
2022/08/25 11:49:42;;;;;;;7.00;2.93;;;32.30;42.50;;;;;;5040211;28;20040;-72
2022/08/25 11:52:33;;;;;;;7.80;2.85;;;32.30;42.90;;;;;;5005489;28;20060;-71
2022/08/25 11:55:13;;;;;;;7.40;2.90;;;32.40;42.50;;;;;;5058776;28;20064;-72
2022/08/25 11:57:41;;;;;;;5.53;2.53;;;32.40;41.40;;;;;;5069647;28;20045;-73
2022/08/25 12:00:13;;;;;;;6.15;2.85;;;32.50;42.20;;;;;;5058650;28;20395;-72
2022/08/25 12:02:49;;;;;;;6.85;2.72;;;32.40;41.90;;;;;;5062754;28;20041;-71
2022/08/25 12:05:18;;;;;;;5.22;2.63;;;31.90;41.30;;;;;;5035553;28;20045;-72
2022/08/25 12:07:47;;;;;;;5.95;2.70;;;32.10;42.90;;;;;;5064658;28;20051;-74
2022/08/25 12:10:22;;;;;;;5.70;2.80;;;32.20;42.00;;;;;;5042513;28;20045;-73
2022/08/25 12:12:56;;;;;;;6.90;2.70;;;31.90;42.50;;;;;;5067782;28;20049;-74
2022/08/25 12:15:41;;;;;;;7.10;2.80;;;32.20;42.30;;;;;;5053675;28;20052;-76
2022/08/25 12:18:12;;;;;;;7.18;3.05;;;32.20;42.70;;;;;;5065085;28;20472;-73
2022/08/25 12:20:55;;;;;;;5.53;2.58;;;32.40;42.90;;;;;;5052090;28;20052;-72
2022/08/25 12:23:41;;;;;;;7.35;2.92;;;32.30;42.90;;;;;;5059703;28;20563;-72
2022/08/25 12:26:29;;;;;;;5.20;3.00;;;32.20;42.60;;;;;;5037601;28;20073;-73
2022/08/25 12:29:30;;;;;;;6.82;3.00;;;32.30;42.90;;;;;;5057936;28;20440;-74
2022/08/25 12:32:39;;;;;;;8.48;3.13;;;32.40;42.20;;;;;;5058817;28;20044;-75
2022/08/25 12:35:19;;;;;;;5.63;3.00;;;32.10;42.70;;;;;;5059126;28;20071;-74
2022/08/25 12:38:09;;;;;;;6.22;3.08;;;31.90;42.70;;;;;;5060754;28;20468;-72
2022/08/25 12:40:43;;;;;;;7.93;3.10;;;31.70;43.20;;;;;;5053208;28;20082;-73
2022/08/25 12:43:11;;;;;;;7.28;2.92;;;31.80;43.10;;;;;;5052848;28;20044;-72
2022/08/25 12:45:51;;;;;;;6.32;2.92;;;32.00;42.90;;;;;;5035172;28;20475;-74
2022/08/25 12:48:26;;;;;;;7.68;2.95;;;32.20;41.60;;;;;;5058342;28;20578;-75
2022/08/25 12:51:01;;;;;;;5.28;2.90;;;32.20;42.30;;;;;;5071779;28;20053;-73
2022/08/25 12:53:39;;;;;;;5.65;2.72;;;32.30;42.70;;;;;;5052685;28;20083;-71
2022/08/25 12:56:07;;;;;;;5.68;2.95;;;32.30;41.20;;;;;;5058073;28;20047;-72
2022/08/25 12:59:01;;;;;;;6.95;3.10;;;32.30;41.60;;;;;;5037083;28;20028;-73
2022/08/25 13:02:06;;;;;;;7.03;3.10;;;32.40;42.40;;;;;;5065851;28;20467;-71
2022/08/25 13:04:40;;;;;;;7.35;3.08;;;32.10;41.70;;;;;;5052931;28;20044;-71
2022/08/25 13:07:35;;;;;;;5.78;3.22;;;31.90;42.20;;;;;;5036406;28;20476;-72
2022/08/25 13:10:40;;;;;;;7.45;3.22;;;32.00;42.80;;;;;;5053860;28;20056;-73
2022/08/25 13:13:30;;;;;;;6.80;3.20;;;32.10;42.40;;;;;;5044954;28;20053;-75
2022/08/25 13:16:05;;;;;;;5.72;2.97;;;32.10;43.40;;;;;;5053391;28;20069;-72
2022/08/25 13:18:40;;;;;;;6.82;3.20;;;32.20;41.80;;;;;;5054166;28;20041;-71
2022/08/25 13:21:23;;;;;;;6.60;2.90;;;32.30;41.40;;;;;;5050415;28;20116;-73